Peru, Nebraska
Current Conditions -  °F | °C
As of 6:55 AM on Friday 24 Oct 2014 (Local Time) from KAFK Reporting Station
Haze Haze  
Wind Chill: 58°   Ceiling: NA
Heat Index: 58°   Visibility: 3mi
Dew Point: 58°   Wind: 10mph
Humidity: 100%   Direction: 190°S
Pressure: 29.98"   Gusts: NA
Location:  40.47°N, 95.73°W
Report Text: KAFK 241155Z AUTO 19009KT 3SM BR 14/14 A2998 RMK AO2 SKY OBSCURED 7//// T01440144 10145 20131
Loading
Personal Weather Stations






























Interactive Weather Map New forecast layout! Learn more

10-Day Weather Forecast

Advertisements
Track Severe Weather on mobile